createdAt,value
2018-07-23T00:02:26.834Z,6.83
2018-07-23T00:04:55.601Z,6.53
2018-07-23T00:07:24.447Z,6.87
2018-07-23T00:09:53.595Z,7.33
2018-07-23T00:12:22.664Z,7.83
2018-07-23T00:14:51.475Z,7.03
2018-07-23T00:17:20.636Z,8.97
2018-07-23T00:19:49.419Z,8.23
2018-07-23T00:22:18.367Z,9.60
2018-07-23T00:24:47.223Z,7.23
2018-07-23T00:27:15.882Z,10.23
2018-07-23T00:29:44.715Z,8.03
2018-07-23T00:32:13.522Z,8.50
2018-07-23T00:34:42.569Z,8.97
2018-07-23T00:37:11.476Z,9.33
2018-07-23T00:39:40.399Z,8.73
2018-07-23T00:42:09.171Z,9.57
2018-07-23T00:44:37.979Z,9.80
2018-07-23T00:47:06.854Z,10.43
2018-07-23T00:49:35.968Z,9.57
2018-07-23T00:52:04.829Z,10.07
2018-07-23T00:54:33.699Z,10.30
2018-07-23T00:57:02.808Z,10.47
2018-07-23T00:59:31.700Z,11.13
2018-07-23T01:02:00.468Z,11.87
2018-07-23T01:04:29.254Z,13.53
2018-07-23T01:06:58.017Z,12.10
2018-07-23T01:09:26.864Z,13.37
2018-07-23T01:11:55.747Z,13.23
2018-07-23T01:14:24.549Z,14.70
2018-07-23T01:16:53.201Z,12.30
2018-07-23T01:19:22.163Z,16.77
2018-07-23T01:21:50.951Z,13.67
2018-07-23T01:24:19.843Z,14.50
2018-07-23T01:26:48.655Z,12.07
2018-07-23T01:29:17.420Z,13.80
2018-07-23T01:31:46.230Z,13.93
2018-07-23T01:34:15.044Z,16.00
2018-07-23T01:36:43.915Z,13.67
2018-07-23T01:39:12.681Z,13.33
2018-07-23T01:41:41.485Z,16.00
2018-07-23T01:44:10.282Z,17.33
2018-07-23T01:46:39.112Z,12.47
2018-07-23T01:49:08.035Z,14.70
2018-07-23T01:51:36.875Z,14.40
2018-07-23T01:54:05.678Z,14.50
2018-07-23T01:56:34.477Z,15.33
2018-07-23T01:59:03.284Z,15.67
2018-07-23T02:01:32.184Z,16.90
2018-07-23T02:04:00.978Z,14.33
2018-07-23T02:06:29.879Z,17.80
2018-07-23T02:08:58.696Z,15.67
2018-07-23T02:11:33.463Z,18.00
2018-07-23T02:14:02.303Z,16.10
2018-07-23T02:16:31.156Z,13.87
2018-07-23T02:18:59.766Z,16.37
2018-07-23T02:21:28.576Z,15.43
2018-07-23T02:23:57.463Z,14.10
2018-07-23T02:26:26.443Z,13.30
2018-07-23T02:28:55.262Z,13.30
2018-07-23T02:31:24.089Z,12.27
2018-07-23T02:33:52.924Z,12.87
2018-07-23T02:36:21.727Z,11.93
2018-07-23T02:38:50.639Z,13.73
2018-07-23T02:41:19.469Z,12.57
2018-07-23T02:43:48.111Z,12.57
2018-07-23T02:46:17.277Z,13.07
2018-07-23T02:48:46.108Z,13.30
2018-07-23T02:51:14.954Z,12.47
2018-07-23T02:53:43.752Z,13.13
2018-07-23T02:56:12.524Z,10.97
2018-07-23T02:58:41.377Z,11.70
2018-07-23T03:01:10.194Z,9.90
2018-07-23T03:03:39.104Z,9.37
2018-07-23T03:06:07.914Z,8.70
2018-07-23T03:08:36.752Z,8.77
2018-07-23T03:11:05.423Z,8.00
2018-07-23T03:13:34.283Z,8.97
2018-07-23T03:16:02.978Z,8.87
2018-07-23T03:18:31.875Z,8.20
2018-07-23T03:21:00.667Z,7.30
2018-07-23T03:23:29.700Z,9.40
2018-07-23T03:25:58.408Z,9.33
2018-07-23T03:28:27.244Z,10.57
2018-07-23T03:30:56.371Z,10.07
2018-07-23T03:33:25.253Z,10.23
2018-07-23T03:35:54.111Z,11.73
2018-07-23T03:38:22.932Z,11.20
2018-07-23T03:40:51.829Z,9.93
2018-07-23T03:43:20.617Z,9.53
2018-07-23T03:45:55.627Z,14.67
2018-07-23T03:48:24.487Z,13.80
2018-07-23T03:50:53.399Z,11.37
2018-07-23T03:53:22.236Z,13.10
2018-07-23T03:55:51.129Z,12.63
2018-07-23T03:58:19.918Z,12.13
2018-07-23T04:00:48.839Z,11.43
2018-07-23T04:03:17.708Z,9.13
2018-07-23T04:05:46.370Z,10.40
2018-07-23T04:08:15.163Z,10.40
2018-07-23T04:10:43.998Z,9.00
2018-07-23T04:13:12.832Z,11.80
2018-07-23T04:15:41.744Z,11.27
2018-07-23T04:18:10.596Z,12.17
2018-07-23T04:20:39.429Z,11.87
2018-07-23T04:23:08.305Z,11.87
2018-07-23T04:25:37.164Z,13.67
2018-07-23T04:28:06.188Z,12.77
2018-07-23T04:30:35.017Z,11.87
2018-07-23T04:33:04.019Z,12.67
2018-07-23T04:35:32.907Z,14.83
2018-07-23T04:38:01.608Z,12.97
2018-07-23T04:40:30.547Z,14.80
2018-07-23T04:42:59.394Z,15.17
2018-07-23T04:45:34.311Z,12.27
2018-07-23T04:48:03.010Z,12.47
2018-07-23T04:50:31.908Z,10.40
2018-07-23T04:53:00.764Z,11.40
2018-07-23T04:55:29.555Z,12.37
2018-07-23T04:57:58.483Z,15.70
2018-07-23T05:00:27.265Z,12.17
2018-07-23T05:02:56.148Z,14.40
2018-07-23T05:05:24.827Z,14.07
2018-07-23T05:07:53.497Z,15.40
2018-07-23T05:10:22.317Z,17.47
2018-07-23T05:12:50.990Z,19.03
2018-07-23T05:15:19.855Z,21.63
2018-07-23T05:17:48.687Z,19.87
2018-07-23T05:20:17.520Z,20.23
2018-07-23T05:22:46.281Z,21.70
2018-07-23T05:25:15.136Z,19.43
2018-07-23T05:27:44.002Z,19.47
2018-07-23T05:30:12.872Z,19.83
2018-07-23T05:32:41.652Z,19.27
2018-07-23T05:35:10.840Z,20.43
2018-07-23T05:37:39.748Z,25.43
2018-07-23T05:40:08.652Z,25.90
2018-07-23T05:42:37.462Z,25.90
2018-07-23T05:45:06.469Z,24.90
2018-07-23T05:47:35.236Z,22.47
2018-07-23T05:50:04.866Z,22.03
2018-07-23T05:52:33.687Z,21.07
2018-07-23T05:55:02.542Z,16.70
2018-07-23T05:57:31.343Z,14.67
2018-07-23T06:00:00.161Z,17.33
2018-07-23T06:02:28.947Z,16.50
2018-07-23T06:04:58.237Z,14.50
2018-07-23T06:07:27.005Z,16.13
2018-07-23T06:09:55.884Z,17.50
2018-07-23T06:12:24.666Z,14.70
2018-07-23T06:14:53.571Z,14.40
2018-07-23T06:17:22.464Z,13.90
2018-07-23T06:19:51.252Z,15.17
2018-07-23T06:22:20.089Z,14.60
2018-07-23T06:24:48.943Z,14.00
2018-07-23T06:27:17.841Z,15.60
2018-07-23T06:29:46.955Z,13.03
2018-07-23T06:32:15.663Z,16.67
2018-07-23T06:34:44.389Z,12.50
2018-07-23T06:37:13.447Z,16.03
2018-07-23T06:39:42.238Z,14.67
2018-07-23T06:42:11.166Z,16.47
2018-07-23T06:44:39.956Z,15.33
2018-07-23T06:47:08.835Z,15.43
2018-07-23T06:49:37.636Z,14.77
2018-07-23T06:52:06.704Z,14.47
2018-07-23T06:54:35.622Z,14.27
2018-07-23T06:57:04.863Z,13.50
2018-07-23T06:59:33.869Z,12.47
2018-07-23T07:02:02.752Z,12.80
2018-07-23T07:04:31.476Z,7.40
2018-07-23T07:07:00.394Z,7.87
2018-07-23T07:09:29.196Z,9.00
2018-07-23T07:11:58.031Z,8.73
2018-07-23T07:14:26.865Z,7.97
2018-07-23T07:16:55.739Z,7.40
2018-07-23T07:19:24.615Z,7.23
2018-07-23T07:21:53.417Z,9.20
2018-07-23T07:24:22.727Z,10.23
2018-07-23T07:26:51.587Z,7.03
2018-07-23T07:29:20.501Z,6.93
2018-07-23T07:31:49.209Z,7.27
2018-07-23T07:34:18.055Z,6.63
2018-07-23T07:36:46.877Z,6.87
2018-07-23T07:39:15.770Z,7.10
2018-07-23T07:41:44.554Z,7.10
2018-07-23T07:44:13.539Z,11.00
2018-07-23T07:46:42.350Z,7.27
2018-07-23T07:49:11.183Z,7.00
2018-07-23T07:51:39.859Z,6.13
2018-07-23T07:54:08.814Z,6.87
2018-07-23T07:56:37.683Z,5.60
2018-07-23T07:59:06.640Z,5.63
2018-07-23T08:01:35.543Z,5.87
2018-07-23T08:04:04.475Z,5.60
2018-07-23T08:06:33.243Z,6.93
2018-07-23T08:09:02.188Z,5.87
2018-07-23T08:11:30.950Z,7.33
2018-07-23T08:13:59.784Z,7.80
2018-07-23T08:16:28.635Z,6.97
2018-07-23T08:18:57.430Z,6.97
2018-07-23T08:21:26.186Z,7.37
2018-07-23T08:23:55.032Z,7.07
2018-07-23T08:26:23.879Z,7.27
2018-07-23T08:28:52.720Z,8.37
2018-07-23T08:31:21.846Z,7.17
2018-07-23T08:33:50.760Z,7.50
2018-07-23T08:36:19.907Z,8.77
2018-07-23T08:38:48.697Z,8.57
2018-07-23T08:41:17.530Z,6.77
2018-07-23T08:43:46.347Z,6.07
2018-07-23T08:46:15.268Z,6.50
2018-07-23T08:48:44.057Z,6.93
2018-07-23T08:51:12.973Z,9.00
2018-07-23T08:53:41.625Z,8.67
2018-07-23T08:56:10.540Z,7.97
2018-07-23T08:58:39.387Z,7.77
2018-07-23T09:01:08.320Z,6.67
2018-07-23T09:03:37.151Z,5.93
2018-07-23T09:06:06.061Z,10.63
2018-07-23T09:08:35.109Z,7.50
2018-07-23T09:11:04.083Z,6.53
2018-07-23T09:13:32.979Z,6.17
2018-07-23T09:16:01.926Z,5.57
2018-07-23T09:18:30.889Z,8.30
2018-07-23T09:20:59.554Z,5.43
2018-07-23T09:23:28.647Z,4.30
2018-07-23T09:25:57.474Z,5.07
2018-07-23T09:28:26.343Z,4.73
2018-07-23T09:30:55.679Z,5.53
2018-07-23T09:33:25.298Z,6.40
2018-07-23T09:35:54.264Z,5.87
2018-07-23T09:38:23.427Z,4.73
2018-07-23T09:40:52.552Z,5.93
2018-07-23T09:43:21.386Z,7.40
2018-07-23T09:45:54.059Z,4.50
2018-07-23T09:48:22.805Z,4.33
2018-07-23T09:50:51.650Z,3.50
2018-07-23T09:53:20.498Z,4.50
2018-07-23T09:55:49.127Z,3.53
2018-07-23T09:58:18.233Z,4.77
2018-07-23T10:00:52.595Z,5.10
2018-07-23T10:03:21.671Z,4.47
2018-07-23T10:05:50.455Z,5.70
2018-07-23T10:08:19.287Z,4.20
2018-07-23T10:10:48.139Z,4.33
2018-07-23T10:13:17.263Z,4.20
2018-07-23T10:15:46.076Z,4.37
2018-07-23T10:18:15.247Z,5.10
2018-07-23T10:20:44.031Z,5.40
2018-07-23T10:23:13.167Z,3.77
2018-07-23T10:25:42.067Z,5.70
2018-07-23T10:28:10.891Z,5.07
2018-07-23T10:30:39.754Z,5.20
2018-07-23T10:33:08.644Z,6.83
2018-07-23T10:35:37.358Z,5.67
2018-07-23T10:38:06.179Z,6.77
2018-07-23T10:40:35.032Z,4.30
2018-07-23T10:43:03.850Z,4.30
2018-07-23T10:45:38.630Z,3.33
2018-07-23T10:48:07.500Z,4.37
2018-07-23T10:50:36.372Z,4.90
2018-07-23T10:53:05.195Z,3.83
2018-07-23T10:55:34.076Z,5.83
2018-07-23T10:58:02.920Z,6.07
2018-07-23T11:00:31.891Z,3.60
2018-07-23T11:03:00.747Z,5.10
2018-07-23T11:05:29.435Z,4.13
2018-07-23T11:07:58.568Z,4.87
2018-07-23T11:10:27.443Z,4.23
2018-07-23T11:12:56.283Z,3.60
2018-07-23T11:15:25.106Z,3.87
2018-07-23T11:17:53.859Z,3.50
2018-07-23T11:20:22.704Z,3.97
2018-07-23T11:22:51.516Z,3.07
2018-07-23T11:25:39.084Z,3.30
2018-07-23T11:27:49.624Z,5.73
2018-07-23T11:30:18.376Z,3.97
2018-07-23T11:32:47.187Z,5.73
2018-07-23T11:35:15.987Z,4.20
2018-07-23T11:37:44.887Z,2.77
2018-07-23T11:40:13.948Z,4.97
2018-07-23T11:42:42.777Z,6.00
2018-07-23T11:45:11.589Z,2.63
2018-07-23T11:47:40.432Z,3.57
2018-07-23T11:50:09.193Z,5.07
2018-07-23T11:52:38.197Z,2.77
2018-07-23T11:55:06.959Z,3.90
2018-07-23T11:57:35.616Z,4.50
2018-07-23T12:00:05.016Z,2.93
2018-07-23T12:02:33.935Z,3.23
2018-07-23T12:05:02.778Z,3.90
2018-07-23T12:07:31.617Z,4.13
2018-07-23T12:10:00.363Z,3.43
2018-07-23T12:12:29.222Z,4.07
2018-07-23T12:14:58.090Z,2.90
2018-07-23T12:17:26.866Z,3.10
2018-07-23T12:19:55.708Z,3.30
2018-07-23T12:22:24.457Z,2.70
2018-07-23T12:24:53.307Z,3.27
2018-07-23T12:27:22.172Z,2.93
2018-07-23T12:29:50.987Z,3.40
2018-07-23T12:32:19.877Z,3.77
2018-07-23T12:34:48.701Z,2.80
2018-07-23T12:37:17.493Z,4.03
2018-07-23T12:39:46.429Z,3.10
2018-07-23T12:42:15.160Z,4.63
2018-07-23T12:44:43.964Z,3.30
2018-07-23T12:47:12.833Z,3.67
2018-07-23T12:49:41.604Z,2.90
2018-07-23T12:52:10.331Z,3.33
2018-07-23T12:54:39.169Z,3.37
2018-07-23T12:57:08.006Z,4.33
2018-07-23T12:59:36.824Z,4.63
2018-07-23T13:02:05.508Z,2.97
2018-07-23T13:04:34.386Z,3.40
2018-07-23T13:07:03.198Z,3.30
2018-07-23T13:09:31.856Z,2.97
2018-07-23T13:12:00.750Z,3.40
2018-07-23T13:14:29.643Z,3.03
2018-07-23T13:16:58.524Z,3.07
2018-07-23T13:19:27.562Z,3.80
2018-07-23T13:21:56.406Z,3.07
2018-07-23T13:24:25.258Z,2.90
2018-07-23T13:26:54.179Z,4.27
2018-07-23T13:29:23.446Z,4.37
2018-07-23T13:31:52.336Z,3.07
2018-07-23T13:34:21.211Z,4.07
2018-07-23T13:36:49.916Z,4.53
2018-07-23T13:39:18.740Z,3.33
2018-07-23T13:41:47.639Z,4.27
2018-07-23T13:44:16.436Z,5.17
2018-07-23T13:46:45.299Z,2.80
2018-07-23T13:49:14.314Z,3.60
2018-07-23T13:51:43.217Z,3.40
2018-07-23T13:54:12.148Z,3.03
2018-07-23T13:56:40.817Z,4.53
2018-07-23T13:59:09.639Z,3.67
2018-07-23T14:01:38.462Z,2.60
2018-07-23T14:04:07.260Z,2.80
2018-07-23T14:06:36.205Z,2.57
2018-07-23T14:09:09.153Z,3.03
2018-07-23T14:11:38.099Z,2.90
2018-07-23T14:14:07.015Z,2.70
2018-07-23T14:16:35.894Z,2.70
2018-07-23T14:19:04.729Z,3.67
2018-07-23T14:21:33.560Z,6.40
2018-07-23T14:24:02.625Z,2.90
2018-07-23T14:26:31.234Z,3.20
2018-07-23T14:28:59.853Z,3.07
2018-07-23T14:31:28.739Z,3.70
2018-07-23T14:33:57.580Z,3.10
2018-07-23T14:36:26.546Z,3.30
2018-07-23T14:38:55.388Z,3.53
2018-07-23T14:41:24.163Z,3.47
2018-07-23T14:43:53.091Z,3.97
2018-07-23T14:46:21.896Z,3.53
2018-07-23T14:48:50.699Z,3.70
2018-07-23T14:51:19.452Z,4.30
2018-07-23T14:53:48.299Z,3.40
2018-07-23T14:56:17.183Z,4.60
2018-07-23T14:58:46.253Z,3.90
2018-07-23T15:01:15.030Z,3.87
2018-07-23T15:03:43.861Z,4.83
2018-07-23T15:06:13.060Z,4.27
2018-07-23T15:08:41.953Z,4.33
2018-07-23T15:11:10.683Z,3.93
2018-07-23T15:13:39.731Z,3.83
2018-07-23T15:16:08.631Z,6.20
2018-07-23T15:18:37.367Z,4.37
2018-07-23T15:21:06.308Z,3.13
2018-07-23T15:23:35.108Z,2.60
2018-07-23T15:26:04.052Z,2.77
2018-07-23T15:28:32.829Z,4.23
2018-07-23T15:31:01.627Z,3.70
2018-07-23T15:33:30.471Z,3.20
2018-07-23T15:35:59.319Z,3.50
2018-07-23T15:38:28.103Z,2.63
2018-07-23T15:40:56.932Z,2.73
2018-07-23T15:43:25.975Z,2.73
2018-07-23T15:45:59.799Z,2.73
2018-07-23T15:48:28.509Z,2.67
2018-07-23T15:50:57.342Z,3.60
2018-07-23T15:53:25.977Z,3.40
2018-07-23T15:55:54.881Z,3.10
2018-07-23T15:58:23.759Z,3.00
2018-07-23T16:00:52.616Z,3.07
2018-07-23T16:03:21.436Z,4.40
2018-07-23T16:05:50.294Z,5.57
2018-07-23T16:08:19.058Z,3.43
2018-07-23T16:10:47.919Z,2.97
2018-07-23T16:13:16.743Z,3.53
2018-07-23T16:15:45.495Z,2.50
2018-07-23T16:18:14.331Z,2.20
2018-07-23T16:20:43.246Z,3.90
2018-07-23T16:23:12.118Z,2.93
2018-07-23T16:25:40.798Z,1.97
2018-07-23T16:28:10.907Z,2.60
2018-07-23T16:30:39.770Z,3.77
2018-07-23T16:33:08.613Z,3.33
2018-07-23T16:35:37.487Z,3.03
2018-07-23T16:38:06.433Z,2.73
2018-07-23T16:40:35.242Z,3.73
2018-07-23T16:43:04.161Z,2.33
2018-07-23T16:45:33.023Z,2.37
2018-07-23T16:48:02.004Z,3.67
2018-07-23T16:50:30.788Z,3.20
2018-07-23T16:52:59.621Z,2.50
2018-07-23T16:55:28.703Z,3.10
2018-07-23T16:57:57.503Z,2.60
2018-07-23T17:00:26.514Z,3.07
2018-07-23T17:02:55.227Z,3.47
2018-07-23T17:05:24.072Z,3.07
2018-07-23T17:07:52.939Z,3.43
2018-07-23T17:10:21.779Z,3.33
2018-07-23T17:12:50.607Z,2.30
2018-07-23T17:15:19.523Z,2.40
2018-07-23T17:17:48.388Z,2.97
2018-07-23T17:20:17.183Z,3.53
2018-07-23T17:22:45.959Z,4.20
2018-07-23T17:25:14.939Z,3.50
2018-07-23T17:27:43.816Z,2.57
2018-07-23T17:30:12.671Z,3.53
2018-07-23T17:32:41.471Z,2.90
2018-07-23T17:35:10.304Z,2.53
2018-07-23T17:37:39.202Z,2.53
2018-07-23T17:40:08.167Z,2.67
2018-07-23T17:42:36.983Z,3.40
2018-07-23T17:45:05.853Z,2.53
2018-07-23T17:47:34.615Z,2.30
2018-07-23T17:50:03.700Z,4.57
2018-07-23T17:52:32.476Z,3.50
2018-07-23T17:55:01.364Z,4.43
2018-07-23T17:57:29.975Z,5.60
2018-07-23T17:59:58.789Z,8.43
2018-07-23T18:02:27.664Z,2.50
2018-07-23T18:04:56.525Z,2.53
2018-07-23T18:07:25.327Z,3.20
2018-07-23T18:09:54.158Z,2.70
2018-07-23T18:12:22.960Z,3.77
2018-07-23T18:14:51.848Z,3.03
2018-07-23T18:17:21.537Z,3.37
2018-07-23T18:19:50.383Z,3.13
2018-07-23T18:22:20.107Z,2.97
2018-07-23T18:24:48.961Z,2.90
2018-07-23T18:27:17.843Z,4.10
2018-07-23T18:29:46.474Z,4.53
2018-07-23T18:32:15.326Z,6.50
2018-07-23T18:34:44.039Z,11.20
2018-07-23T18:37:12.943Z,3.73
2018-07-23T18:39:41.777Z,3.67
2018-07-23T18:42:10.648Z,4.87
2018-07-23T18:44:39.467Z,8.27
2018-07-23T18:47:08.348Z,7.47
2018-07-23T18:49:51.002Z,4.57
2018-07-23T18:52:20.524Z,6.33
2018-07-23T18:54:51.620Z,3.90
2018-07-23T18:57:20.480Z,4.43
2018-07-23T18:59:49.413Z,3.13
2018-07-23T19:02:19.156Z,4.57
2018-07-23T19:04:48.014Z,3.23
2018-07-23T19:07:16.883Z,3.20
2018-07-23T19:09:45.672Z,3.33
2018-07-23T19:12:14.546Z,3.40
2018-07-23T19:14:43.323Z,6.47
2018-07-23T19:17:13.379Z,2.97
2018-07-23T19:19:42.294Z,2.70
2018-07-23T19:22:12.052Z,4.20
2018-07-23T19:24:41.013Z,4.57
2018-07-23T19:27:09.844Z,3.80
2018-07-23T19:29:38.835Z,3.57
2018-07-23T19:32:07.661Z,3.70
2018-07-23T19:34:36.518Z,4.57
2018-07-23T19:37:05.443Z,4.33
2018-07-23T19:39:34.278Z,3.13
2018-07-23T19:42:03.196Z,5.37
2018-07-23T19:44:32.034Z,3.63
2018-07-23T19:47:00.650Z,4.43
2018-07-23T19:49:29.412Z,3.70
2018-07-23T19:51:59.007Z,5.10
2018-07-23T19:54:28.091Z,4.10
2018-07-23T19:56:56.931Z,3.60
2018-07-23T19:59:26.142Z,3.53
2018-07-23T20:01:54.952Z,3.53
2018-07-23T20:04:23.704Z,5.37
2018-07-23T20:06:52.679Z,3.90
2018-07-23T20:09:21.441Z,6.97
2018-07-23T20:11:50.263Z,6.30
2018-07-23T20:14:18.861Z,7.10
2018-07-23T20:16:47.725Z,6.00
2018-07-23T20:19:16.628Z,7.17
2018-07-23T20:21:45.529Z,5.90
2018-07-23T20:24:14.343Z,6.37
2018-07-23T20:26:43.220Z,7.60
2018-07-23T20:29:11.997Z,8.37
2018-07-23T20:31:40.899Z,8.30
2018-07-23T20:34:09.722Z,11.27
2018-07-23T20:36:38.568Z,8.87
2018-07-23T20:39:08.017Z,7.73
2018-07-23T20:41:36.887Z,8.70
2018-07-23T20:44:05.895Z,8.83
2018-07-23T20:46:34.727Z,8.93
2018-07-23T20:49:03.591Z,10.37
2018-07-23T20:51:32.436Z,8.33
2018-07-23T20:54:01.240Z,9.63
2018-07-23T20:56:29.911Z,11.97
2018-07-23T20:58:58.593Z,9.00
2018-07-23T21:01:27.183Z,10.23
2018-07-23T21:03:56.041Z,10.43
2018-07-23T21:06:24.808Z,8.07
2018-07-23T21:08:53.686Z,8.10
2018-07-23T21:11:22.504Z,7.60
2018-07-23T21:13:51.370Z,8.73
2018-07-23T21:16:20.171Z,10.43
2018-07-23T21:18:48.993Z,9.93
2018-07-23T21:21:17.887Z,8.70
2018-07-23T21:23:46.722Z,7.90
2018-07-23T21:26:15.580Z,8.60
2018-07-23T21:28:44.399Z,9.83
2018-07-23T21:31:13.358Z,8.53
2018-07-23T21:33:42.253Z,10.60
2018-07-23T21:36:11.035Z,10.70
2018-07-23T21:38:39.903Z,11.00
2018-07-23T21:41:08.687Z,10.00
2018-07-23T21:43:37.442Z,9.47
2018-07-23T21:46:06.488Z,9.70
2018-07-23T21:48:35.362Z,9.30
2018-07-23T21:51:03.979Z,13.07
2018-07-23T21:53:32.794Z,8.53
2018-07-23T21:56:01.699Z,9.00
2018-07-23T21:58:30.602Z,8.77
2018-07-23T22:00:59.467Z,8.77
2018-07-23T22:03:28.130Z,9.27
2018-07-23T22:05:56.955Z,9.73
2018-07-23T22:08:25.736Z,8.90
2018-07-23T22:10:54.641Z,9.77
2018-07-23T22:13:23.474Z,10.63
2018-07-23T22:15:52.328Z,9.40
2018-07-23T22:18:21.159Z,10.90
2018-07-23T22:20:49.991Z,12.33
2018-07-23T22:23:18.850Z,12.63
2018-07-23T22:25:47.729Z,9.47
2018-07-23T22:28:16.511Z,15.40
2018-07-23T22:30:45.475Z,12.13
2018-07-23T22:33:14.352Z,11.23
2018-07-23T22:35:43.260Z,11.23
2018-07-23T22:38:12.057Z,12.17
2018-07-23T22:40:40.886Z,11.80
2018-07-23T22:43:09.655Z,12.20
2018-07-23T22:45:44.480Z,12.17
2018-07-23T22:48:13.178Z,11.93
2018-07-23T22:50:42.018Z,12.17
2018-07-23T22:53:10.840Z,12.97
2018-07-23T22:55:39.665Z,14.00
2018-07-23T22:58:08.507Z,13.20
2018-07-23T23:00:37.719Z,15.37
2018-07-23T23:03:06.619Z,12.73
2018-07-23T23:05:35.422Z,12.87
2018-07-23T23:08:04.300Z,14.00
2018-07-23T23:10:33.131Z,13.33
2018-07-23T23:13:02.043Z,13.57
2018-07-23T23:15:30.864Z,12.83
2018-07-23T23:17:59.736Z,13.80
2018-07-23T23:20:28.501Z,13.07
2018-07-23T23:22:57.320Z,13.43
2018-07-23T23:25:26.211Z,10.43
2018-07-23T23:27:55.125Z,11.53
2018-07-23T23:30:24.024Z,10.33
2018-07-23T23:32:52.912Z,10.07
2018-07-23T23:35:21.697Z,12.37
2018-07-23T23:37:50.584Z,12.83
2018-07-23T23:40:19.384Z,14.37
2018-07-23T23:42:48.157Z,17.83
2018-07-23T23:45:17.066Z,13.10
2018-07-23T23:47:45.847Z,13.87
2018-07-23T23:50:14.716Z,14.33
2018-07-23T23:52:43.584Z,16.53
2018-07-23T23:55:12.479Z,13.73
2018-07-23T23:57:41.225Z,14.90
